Time;durP1;ratioP1;P1;durP2;ratioP2;P2;SDS_P1;SDS_P2;PMS_P1;PMS_P2;Temp;Humidity;BMP_temperature;BMP_pressure;BME280_temperature;BME280_humidity;BME280_pressure;Samples;Min_cycle;Max_cycle;Signal;HPM_P1;HPM_P2
2022/03/27 00:02:18;;;;;;;19.77;6.40;;;8.30;99.90;;;;;;5056586;28;20458;-56
2022/03/27 00:04:45;;;;;;;16.25;6.00;;;8.20;99.90;;;;;;5055944;28;20454;-56
2022/03/27 00:07:13;;;;;;;19.58;7.13;;;8.20;99.90;;;;;;5056319;28;20399;-58
2022/03/27 00:09:39;;;;;;;18.20;6.75;;;8.20;99.90;;;;;;5055436;28;20379;-58
2022/03/27 00:12:07;;;;;;;20.58;7.18;;;8.20;99.90;;;;;;5055694;28;20383;-58
2022/03/27 00:14:34;;;;;;;18.27;6.60;;;8.30;99.90;;;;;;5055780;28;20415;-58
2022/03/27 00:16:59;;;;;;;21.98;7.38;;;8.30;99.90;;;;;;5055358;28;20811;-58
2022/03/27 00:19:26;;;;;;;15.60;6.30;;;8.20;99.90;;;;;;5055735;28;21020;-57
2022/03/27 00:21:53;;;;;;;20.37;6.50;;;8.20;99.90;;;;;;5071825;28;20845;-57
2022/03/27 00:24:20;;;;;;;19.05;6.88;;;8.20;99.90;;;;;;5054372;28;20962;-56
2022/03/27 00:26:47;;;;;;;17.33;6.33;;;8.20;99.90;;;;;;5065768;28;20455;-58
2022/03/27 00:29:16;;;;;;;19.93;7.57;;;8.20;99.90;;;;;;5074872;28;20821;-57
2022/03/27 00:31:44;;;;;;;19.60;6.43;;;8.10;99.90;;;;;;5093561;28;20427;-58
2022/03/27 00:34:11;;;;;;;23.80;7.93;;;8.10;99.90;;;;;;5075609;28;20385;-57
2022/03/27 00:36:38;;;;;;;19.73;7.53;;;8.00;99.90;;;;;;5076721;28;20382;-58
2022/03/27 00:39:03;;;;;;;21.88;7.40;;;7.90;99.90;;;;;;5079114;28;20733;-56
2022/03/27 00:41:32;;;;;;;18.92;6.70;;;7.90;99.90;;;;;;5081488;28;20389;-57
2022/03/27 00:44:00;;;;;;;21.00;7.30;;;7.90;99.90;;;;;;5094705;28;20414;-58
2022/03/27 00:46:27;;;;;;;22.10;7.50;;;7.90;99.90;;;;;;5062420;28;20395;-58
2022/03/27 00:48:54;;;;;;;19.00;7.38;;;7.90;99.90;;;;;;5061596;28;20396;-56
2022/03/27 00:51:20;;;;;;;20.02;7.72;;;7.90;99.90;;;;;;5078488;28;20787;-57
2022/03/27 00:53:47;;;;;;;20.70;7.50;;;7.90;99.90;;;;;;5061895;28;20395;-58
2022/03/27 00:56:14;;;;;;;17.42;6.65;;;7.90;99.90;;;;;;5074775;28;20476;-58
2022/03/27 00:58:40;;;;;;;18.38;6.97;;;7.90;99.90;;;;;;5041303;28;20448;-56
2022/03/27 01:01:23;;;;;;;20.73;6.87;;;7.90;99.90;;;;;;5040116;28;20746;-58
2022/03/27 01:03:55;;;;;;;19.75;6.97;;;7.90;99.90;;;;;;5038917;28;20393;-56
2022/03/27 01:06:41;;;;;;;19.48;7.07;;;7.90;99.90;;;;;;5040104;28;20404;-58
2022/03/27 01:11:55;;;;;;;17.93;6.50;;;7.90;99.90;;;;;;5053157;28;20806;-55
2022/03/27 01:14:31;;;;;;;19.13;7.18;;;7.90;99.90;;;;;;5049400;28;20405;-57
2022/03/27 01:17:08;;;;;;;19.17;7.00;;;7.90;99.90;;;;;;5036432;28;20390;-56
2022/03/27 01:19:42;;;;;;;17.77;7.45;;;7.90;99.90;;;;;;5040328;28;20409;-58
2022/03/27 01:22:10;;;;;;;23.70;7.47;;;7.90;99.90;;;;;;5024914;28;20992;-57
2022/03/27 01:24:35;;;;;;;20.73;7.63;;;7.90;99.90;;;;;;5036870;28;20386;-56
2022/03/27 01:27:01;;;;;;;19.43;7.47;;;7.80;99.90;;;;;;5036754;28;20400;-55
2022/03/27 01:29:27;;;;;;;22.95;7.50;;;7.80;99.90;;;;;;5040229;28;20541;-58
2022/03/27 01:31:53;;;;;;;19.98;7.40;;;7.80;99.90;;;;;;5037005;28;20432;-57
2022/03/27 01:34:19;;;;;;;17.57;6.87;;;7.70;99.90;;;;;;5037030;28;20522;-55
2022/03/27 01:36:45;;;;;;;19.52;7.18;;;7.70;99.90;;;;;;5035485;28;20451;-55
2022/03/27 01:39:12;;;;;;;15.57;6.72;;;7.70;99.90;;;;;;5035617;28;20402;-57
2022/03/27 01:41:39;;;;;;;17.60;7.17;;;7.70;99.90;;;;;;5034973;28;20473;-58
2022/03/27 01:44:07;;;;;;;17.38;6.95;;;7.70;99.90;;;;;;5036353;28;20401;-56
2022/03/27 01:46:35;;;;;;;14.80;6.82;;;7.70;99.90;;;;;;5075372;28;20389;-57
2022/03/27 01:49:02;;;;;;;25.80;8.02;;;7.70;99.90;;;;;;5074776;28;20378;-56
2022/03/27 01:51:28;;;;;;;17.85;7.15;;;7.70;99.90;;;;;;5075495;28;20708;-57
2022/03/27 01:53:55;;;;;;;25.33;7.80;;;7.70;99.90;;;;;;5074467;28;20394;-57
2022/03/27 01:56:21;;;;;;;21.65;7.40;;;7.70;99.90;;;;;;5075403;28;20390;-58
2022/03/27 01:58:46;;;;;;;20.08;7.10;;;7.60;99.90;;;;;;5093200;28;20480;-55
2022/03/27 02:01:12;;;;;;;19.00;7.10;;;7.60;99.90;;;;;;5074585;28;20594;-58
2022/03/27 02:03:37;;;;;;;18.53;7.10;;;7.60;99.90;;;;;;5073879;28;20386;-58
2022/03/27 02:06:06;;;;;;;22.60;7.50;;;7.60;99.90;;;;;;5091936;28;20410;-56
2022/03/27 02:08:33;;;;;;;21.15;7.88;;;7.60;99.90;;;;;;5092578;28;20385;-57
2022/03/27 02:10:59;;;;;;;23.88;7.30;;;7.50;99.90;;;;;;5076256;28;20389;-54
2022/03/27 02:13:25;;;;;;;20.13;7.45;;;7.50;99.90;;;;;;5076614;28;20386;-58
2022/03/27 02:15:53;;;;;;;19.40;7.78;;;7.50;99.90;;;;;;5073831;28;20400;-57
2022/03/27 02:18:19;;;;;;;20.02;7.25;;;7.50;99.90;;;;;;5074741;28;20390;-56
2022/03/27 02:20:44;;;;;;;19.30;6.57;;;7.50;99.90;;;;;;5075178;28;20471;-56
2022/03/27 02:23:11;;;;;;;24.90;7.83;;;7.50;99.90;;;;;;5073669;28;20446;-56
2022/03/27 02:25:37;;;;;;;21.70;7.72;;;7.40;99.90;;;;;;5072411;28;20533;-57
2022/03/27 02:28:03;;;;;;;18.20;7.60;;;7.40;99.90;;;;;;5071341;28;20386;-57
2022/03/27 02:30:29;;;;;;;21.95;7.88;;;7.40;99.90;;;;;;5072072;28;20386;-55
2022/03/27 02:32:54;;;;;;;24.53;7.67;;;7.40;99.90;;;;;;5072621;28;20459;-57
2022/03/27 02:35:20;;;;;;;20.97;7.40;;;7.40;99.90;;;;;;5072834;28;20421;-57
2022/03/27 02:37:46;;;;;;;19.73;7.53;;;7.40;99.90;;;;;;5072779;28;20393;-55
2022/03/27 02:40:11;;;;;;;21.92;7.72;;;7.40;99.90;;;;;;5074999;28;20413;-57
2022/03/27 02:42:37;;;;;;;22.88;7.60;;;7.40;99.90;;;;;;5093656;28;20388;-58
2022/03/27 02:45:05;;;;;;;19.80;7.17;;;7.40;99.90;;;;;;5059615;28;20755;-57
2022/03/27 02:47:31;;;;;;;18.73;6.90;;;7.30;99.90;;;;;;5035579;28;20720;-56
2022/03/27 02:49:57;;;;;;;21.08;8.00;;;7.30;99.90;;;;;;5035113;28;20785;-57
2022/03/27 02:52:23;;;;;;;20.40;7.85;;;7.40;99.90;;;;;;5035977;28;20700;-56
2022/03/27 02:54:48;;;;;;;19.77;7.45;;;7.30;99.90;;;;;;5034960;28;20389;-57
2022/03/27 02:57:15;;;;;;;20.83;7.57;;;7.30;99.90;;;;;;5053083;28;20398;-57
2022/03/27 02:59:41;;;;;;;24.73;8.55;;;7.30;99.90;;;;;;5037438;28;20441;-58
2022/03/27 03:02:07;;;;;;;24.03;8.37;;;7.30;99.90;;;;;;5036451;28;20436;-58
2022/03/27 03:04:34;;;;;;;21.00;7.93;;;7.30;99.90;;;;;;5035747;28;20525;-54
2022/03/27 03:07:00;;;;;;;20.52;7.97;;;7.20;99.90;;;;;;5036131;28;20381;-55
2022/03/27 03:09:27;;;;;;;17.95;7.75;;;7.20;99.90;;;;;;5035834;28;20424;-58
2022/03/27 03:11:52;;;;;;;18.23;7.32;;;7.20;99.90;;;;;;5036659;28;20490;-56
2022/03/27 03:14:18;;;;;;;20.02;7.80;;;7.30;99.90;;;;;;5053667;28;20480;-58
2022/03/27 03:16:46;;;;;;;17.58;7.85;;;7.30;99.90;;;;;;5037625;28;20401;-58
2022/03/27 03:19:11;;;;;;;21.27;9.07;;;7.20;99.90;;;;;;5053467;28;20413;-59
2022/03/27 03:21:37;;;;;;;20.60;8.37;;;7.20;99.90;;;;;;5053143;28;20377;-55
2022/03/27 03:24:03;;;;;;;20.30;8.13;;;7.10;99.90;;;;;;5053917;28;20377;-54
2022/03/27 03:26:29;;;;;;;21.37;8.17;;;7.10;99.90;;;;;;5037400;28;20437;-54
2022/03/27 03:28:54;;;;;;;19.63;7.83;;;7.20;99.90;;;;;;5037235;28;20411;-55
2022/03/27 03:31:20;;;;;;;20.10;8.80;;;7.20;99.90;;;;;;5036808;28;20393;-56
2022/03/27 03:33:45;;;;;;;24.55;8.35;;;7.10;99.90;;;;;;5054890;28;20415;-56
2022/03/27 03:36:11;;;;;;;20.23;7.40;;;7.00;99.90;;;;;;5036895;28;20476;-54
2022/03/27 03:38:37;;;;;;;21.43;8.40;;;7.10;99.90;;;;;;5054594;28;20385;-56
2022/03/27 03:41:02;;;;;;;19.70;7.78;;;7.00;99.90;;;;;;5038297;28;20485;-54
2022/03/27 03:43:28;;;;;;;20.55;8.27;;;7.00;99.90;;;;;;5036722;28;20385;-58
2022/03/27 03:45:54;;;;;;;21.63;8.23;;;7.00;99.90;;;;;;5055598;28;20827;-57
2022/03/27 03:48:19;;;;;;;20.73;8.30;;;7.00;99.90;;;;;;5056073;28;20803;-57
2022/03/27 03:50:45;;;;;;;18.37;8.60;;;6.90;99.90;;;;;;5056342;28;20392;-58
2022/03/27 03:53:11;;;;;;;21.03;8.63;;;6.90;99.90;;;;;;5074054;28;20803;-61
2022/03/27 03:55:38;;;;;;;19.20;8.10;;;6.90;99.90;;;;;;5074403;28;20390;-58
2022/03/27 03:58:04;;;;;;;20.77;8.50;;;7.00;99.90;;;;;;5056130;28;20391;-56
2022/03/27 04:00:30;;;;;;;23.40;9.63;;;6.90;99.90;;;;;;5055048;28;20430;-54
2022/03/27 04:02:56;;;;;;;19.38;9.10;;;6.90;99.90;;;;;;5055983;28;20414;-58
2022/03/27 04:05:21;;;;;;;23.20;9.60;;;6.80;99.90;;;;;;5055676;28;20463;-56
2022/03/27 04:07:47;;;;;;;19.35;9.05;;;6.80;99.90;;;;;;5054808;28;20414;-58
2022/03/27 04:10:15;;;;;;;22.80;9.83;;;6.80;99.90;;;;;;5054605;28;20415;-58
2022/03/27 04:12:40;;;;;;;22.50;9.57;;;6.80;99.90;;;;;;5072173;28;20471;-58
2022/03/27 04:15:06;;;;;;;18.67;8.40;;;6.70;99.90;;;;;;5054562;28;20563;-58
2022/03/27 04:17:33;;;;;;;18.50;8.68;;;6.70;99.90;;;;;;5054681;28;20692;-58
2022/03/27 04:19:58;;;;;;;19.52;8.07;;;6.80;99.90;;;;;;5055426;28;20407;-57
2022/03/27 04:22:24;;;;;;;18.20;9.20;;;6.80;99.90;;;;;;5055601;28;20428;-54
2022/03/27 04:24:49;;;;;;;21.73;9.30;;;6.70;99.90;;;;;;5055723;28;20384;-58
2022/03/27 04:27:15;;;;;;;22.00;8.70;;;6.70;99.90;;;;;;5055448;28;20501;-58
2022/03/27 04:29:40;;;;;;;20.90;9.10;;;6.70;99.90;;;;;;5056418;28;20899;-57
2022/03/27 04:32:06;;;;;;;19.90;8.80;;;6.70;99.90;;;;;;5055718;28;20402;-55
2022/03/27 04:34:34;;;;;;;20.42;9.10;;;6.70;99.90;;;;;;5054496;28;20938;-57
2022/03/27 04:37:00;;;;;;;20.77;9.32;;;6.70;99.90;;;;;;5053721;28;20486;-58
2022/03/27 04:39:26;;;;;;;20.55;9.35;;;6.70;99.90;;;;;;5053927;28;20404;-58
2022/03/27 04:41:51;;;;;;;19.80;8.90;;;6.70;99.90;;;;;;5072272;28;20380;-56
2022/03/27 04:44:17;;;;;;;23.10;9.83;;;6.70;99.90;;;;;;5054873;28;20408;-57
2022/03/27 04:46:42;;;;;;;22.60;9.70;;;6.70;99.90;;;;;;5071900;28;20788;-58
2022/03/27 04:49:08;;;;;;;23.70;11.10;;;6.70;99.90;;;;;;5053661;28;20657;-57
2022/03/27 04:51:33;;;;;;;25.83;11.80;;;6.60;99.90;;;;;;5053573;28;20452;-57
2022/03/27 04:53:59;;;;;;;30.13;13.93;;;6.60;99.90;;;;;;5071032;28;20387;-58
2022/03/27 04:56:24;;;;;;;26.92;13.13;;;6.60;99.90;;;;;;5054493;28;20811;-57
2022/03/27 04:58:50;;;;;;;32.03;15.27;;;6.60;99.90;;;;;;5054835;28;20383;-57
2022/03/27 05:01:15;;;;;;;22.87;13.37;;;6.50;99.90;;;;;;5071108;28;20399;-56
2022/03/27 05:03:41;;;;;;;26.42;13.98;;;6.40;99.90;;;;;;5054526;28;20387;-57
2022/03/27 05:06:07;;;;;;;27.83;14.02;;;6.50;99.90;;;;;;5053583;28;20380;-56
2022/03/27 05:08:33;;;;;;;30.88;14.80;;;6.50;99.90;;;;;;5053869;28;20379;-58
2022/03/27 05:10:59;;;;;;;36.50;15.70;;;6.50;99.90;;;;;;5071482;28;20388;-56
2022/03/27 05:13:25;;;;;;;25.60;14.25;;;6.50;99.90;;;;;;5072215;28;20442;-56
2022/03/27 05:15:50;;;;;;;26.02;14.43;;;6.50;99.90;;;;;;5070420;28;20392;-58
2022/03/27 05:18:17;;;;;;;27.35;14.27;;;6.50;99.90;;;;;;5071066;28;20742;-58
2022/03/27 05:20:45;;;;;;;26.08;13.88;;;6.60;99.90;;;;;;5054613;28;20430;-57
2022/03/27 05:23:10;;;;;;;30.77;15.25;;;6.50;99.90;;;;;;5054771;28;20406;-58
2022/03/27 05:25:45;;;;;;;30.47;15.17;;;6.50;99.90;;;;;;5074650;28;20796;-60
2022/03/27 05:28:14;;;;;;;32.80;15.45;;;6.40;99.90;;;;;;5057421;28;20589;-58
2022/03/27 05:30:40;;;;;;;30.23;16.48;;;6.50;99.90;;;;;;5058279;28;20427;-58
2022/03/27 05:33:06;;;;;;;30.27;17.25;;;6.40;99.90;;;;;;5075183;28;20457;-56
2022/03/27 05:35:32;;;;;;;35.47;17.43;;;6.40;99.90;;;;;;5074716;28;20635;-59
2022/03/27 05:37:58;;;;;;;33.97;16.63;;;6.30;99.90;;;;;;5057012;28;20386;-58
2022/03/27 05:40:25;;;;;;;32.60;15.40;;;6.30;99.90;;;;;;5056996;28;20502;-55
2022/03/27 05:42:51;;;;;;;29.90;15.63;;;6.30;99.90;;;;;;5072893;28;20411;-54
2022/03/27 05:45:18;;;;;;;30.60;16.90;;;6.40;99.90;;;;;;5053089;28;20445;-52
2022/03/27 05:47:44;;;;;;;36.20;18.38;;;6.40;99.90;;;;;;5071015;28;20494;-57
2022/03/27 05:50:12;;;;;;;34.97;17.63;;;6.40;99.90;;;;;;5056174;28;20450;-57
2022/03/27 05:52:38;;;;;;;34.92;19.08;;;6.40;99.90;;;;;;5055294;28;20418;-56
2022/03/27 05:55:05;;;;;;;37.80;19.25;;;6.40;99.90;;;;;;5072387;28;20396;-58
2022/03/27 05:57:36;;;;;;;40.28;19.77;;;6.20;99.90;;;;;;5056898;28;20386;-57
2022/03/27 06:00:04;;;;;;;31.40;19.40;;;6.10;99.90;;;;;;5056863;28;20539;-56
2022/03/27 06:02:30;;;;;;;34.13;20.75;;;6.00;99.90;;;;;;5054366;28;20676;-55
2022/03/27 06:04:55;;;;;;;32.00;18.77;;;6.00;99.90;;;;;;5056240;28;20388;-58
2022/03/27 06:07:21;;;;;;;32.63;17.03;;;5.90;99.90;;;;;;5073954;28;20379;-57
2022/03/27 06:09:47;;;;;;;26.90;14.37;;;6.00;99.90;;;;;;5056835;28;20652;-57
2022/03/27 06:12:14;;;;;;;26.70;13.98;;;5.90;99.90;;;;;;5056491;28;20711;-57
2022/03/27 06:14:39;;;;;;;25.23;13.73;;;5.80;99.90;;;;;;5056567;28;20410;-58
2022/03/27 06:17:05;;;;;;;27.80;13.53;;;5.70;99.90;;;;;;5073103;28;20396;-57
2022/03/27 06:19:31;;;;;;;22.47;12.77;;;5.70;99.90;;;;;;5052779;28;20407;-56
2022/03/27 06:21:57;;;;;;;23.77;13.30;;;5.90;99.90;;;;;;5053262;28;20490;-59
2022/03/27 06:24:24;;;;;;;25.23;12.57;;;6.00;99.90;;;;;;5053753;28;20411;-57
2022/03/27 06:26:49;;;;;;;25.40;13.05;;;6.00;99.90;;;;;;5051996;28;20386;-54
2022/03/27 06:29:15;;;;;;;25.40;13.53;;;6.10;99.90;;;;;;5052319;28;20387;-56
2022/03/27 06:31:41;;;;;;;20.50;12.70;;;6.10;99.90;;;;;;5052641;28;20467;-56
2022/03/27 06:34:07;;;;;;;20.98;11.98;;;6.20;99.90;;;;;;5073020;28;20379;-58
2022/03/27 06:36:34;;;;;;;26.45;13.35;;;6.20;99.90;;;;;;5054351;28;20384;-56
2022/03/27 06:39:01;;;;;;;25.33;12.90;;;6.30;99.90;;;;;;5054998;28;20850;-59
2022/03/27 06:41:26;;;;;;;23.60;12.13;;;6.40;99.90;;;;;;5072608;28;20390;-58
2022/03/27 06:43:52;;;;;;;23.20;11.67;;;6.40;99.90;;;;;;5070334;28;20504;-58
2022/03/27 06:46:17;;;;;;;21.20;11.32;;;6.40;99.90;;;;;;5070144;28;20864;-59
2022/03/27 06:48:44;;;;;;;24.17;12.07;;;6.40;99.90;;;;;;5052431;28;21022;-57
2022/03/27 06:51:10;;;;;;;21.10;11.00;;;6.40;99.90;;;;;;5072120;28;20833;-59
2022/03/27 06:53:37;;;;;;;23.50;11.33;;;6.40;99.90;;;;;;5053710;28;20379;-58
2022/03/27 06:56:03;;;;;;;26.48;11.73;;;6.40;99.90;;;;;;5054425;28;20384;-59
2022/03/27 06:58:28;;;;;;;27.83;11.47;;;6.40;99.90;;;;;;5053906;28;20641;-58
2022/03/27 07:03:40;;;;;;;24.17;11.25;;;6.50;99.90;;;;;;5039048;28;20387;-56
2022/03/27 07:06:05;;;;;;;31.00;12.30;;;6.40;99.90;;;;;;5070321;28;20384;-59
2022/03/27 07:08:31;;;;;;;23.15;11.80;;;6.40;99.90;;;;;;5050855;28;20414;-55
2022/03/27 07:10:56;;;;;;;27.67;12.47;;;6.30;99.90;;;;;;5050428;28;20783;-58
2022/03/27 07:13:22;;;;;;;22.07;11.63;;;6.40;99.90;;;;;;5048615;28;20395;-56
2022/03/27 07:15:49;;;;;;;24.25;12.07;;;6.50;99.90;;;;;;5063965;28;20468;-58
2022/03/27 07:18:17;;;;;;;27.77;11.80;;;6.50;99.90;;;;;;5045925;28;20391;-59
2022/03/27 07:20:45;;;;;;;24.67;11.48;;;6.60;99.90;;;;;;5044816;28;20439;-57
2022/03/27 07:23:13;;;;;;;24.58;11.68;;;6.60;99.90;;;;;;5045968;28;20388;-56
2022/03/27 07:25:42;;;;;;;23.25;10.18;;;6.60;99.90;;;;;;5047751;28;20732;-56
2022/03/27 07:28:09;;;;;;;30.83;11.20;;;6.70;99.90;;;;;;5047647;28;20682;-59
2022/03/27 07:30:35;;;;;;;18.67;11.15;;;6.60;99.90;;;;;;5050041;28;20391;-59
2022/03/27 07:33:02;;;;;;;19.58;9.90;;;6.60;99.90;;;;;;5051576;28;20780;-59
2022/03/27 07:35:30;;;;;;;18.08;9.60;;;6.80;99.90;;;;;;5050344;28;20512;-59
2022/03/27 07:37:56;;;;;;;22.87;11.63;;;6.90;99.90;;;;;;5049460;28;20383;-59
2022/03/27 07:40:22;;;;;;;25.13;10.80;;;6.90;99.90;;;;;;5066129;28;20635;-57
2022/03/27 07:42:50;;;;;;;22.20;10.87;;;6.90;99.90;;;;;;5047905;28;20379;-58
2022/03/27 07:45:25;;;;;;;26.63;11.48;;;6.90;99.90;;;;;;5046930;28;20416;-59
2022/03/27 07:47:52;;;;;;;18.92;9.95;;;7.00;99.90;;;;;;5048256;28;20528;-56
2022/03/27 07:50:19;;;;;;;21.90;11.00;;;6.90;99.90;;;;;;5048304;28;20453;-55
2022/03/27 07:52:45;;;;;;;23.20;11.48;;;7.00;99.90;;;;;;5049447;28;20384;-59
2022/03/27 07:55:13;;;;;;;20.35;10.63;;;7.00;99.90;;;;;;5067221;28;20799;-54
2022/03/27 07:57:40;;;;;;;20.00;10.93;;;6.90;99.90;;;;;;5068408;28;20387;-55
2022/03/27 08:00:10;;;;;;;23.40;12.45;;;7.00;99.90;;;;;;5050858;28;20866;-57
2022/03/27 08:02:36;;;;;;;19.70;11.60;;;7.00;99.90;;;;;;5067795;28;20752;-59
2022/03/27 08:05:02;;;;;;;18.77;11.85;;;7.00;99.90;;;;;;5050443;28;20730;-56
2022/03/27 08:07:28;;;;;;;25.25;13.07;;;7.10;99.90;;;;;;5049530;28;21010;-59
2022/03/27 08:09:54;;;;;;;21.25;13.18;;;7.20;99.90;;;;;;5050347;28;21111;-59
2022/03/27 08:12:20;;;;;;;21.10;12.82;;;7.20;99.90;;;;;;5049288;28;20818;-59
2022/03/27 08:14:48;;;;;;;26.85;14.20;;;7.20;99.90;;;;;;5066038;28;20407;-56
2022/03/27 08:17:15;;;;;;;25.30;14.40;;;7.10;99.90;;;;;;5049992;28;20553;-56
2022/03/27 08:19:43;;;;;;;25.98;14.70;;;7.00;99.90;;;;;;5050010;28;20400;-56
2022/03/27 08:22:09;;;;;;;28.97;15.80;;;7.00;99.90;;;;;;5070185;28;20640;-59
2022/03/27 08:24:34;;;;;;;32.83;16.45;;;6.90;99.90;;;;;;5052474;28;20375;-59
2022/03/27 08:27:01;;;;;;;33.43;16.30;;;6.80;99.90;;;;;;5068359;28;20391;-59
2022/03/27 08:29:35;;;;;;;30.20;16.13;;;6.70;99.90;;;;;;5067495;28;20383;-58
2022/03/27 08:32:04;;;;;;;35.08;16.95;;;6.70;99.90;;;;;;5065757;28;20552;-56
2022/03/27 08:34:33;;;;;;;37.85;16.95;;;6.70;99.90;;;;;;5043144;28;20608;-58
2022/03/27 08:37:01;;;;;;;31.05;15.52;;;6.80;99.90;;;;;;5041734;28;20387;-56
2022/03/27 08:39:27;;;;;;;31.92;14.60;;;6.90;99.90;;;;;;5042548;28;20411;-57
2022/03/27 08:41:54;;;;;;;31.27;14.32;;;7.10;99.90;;;;;;5039836;28;20386;-57
2022/03/27 08:44:21;;;;;;;30.93;14.33;;;7.10;99.90;;;;;;5041796;28;20857;-55
2022/03/27 08:46:49;;;;;;;32.53;14.18;;;7.10;99.90;;;;;;5043273;28;20386;-59
2022/03/27 08:49:39;;;;;;;33.25;14.77;;;7.10;99.90;;;;;;5044797;28;20457;-57
2022/03/27 08:52:28;;;;;;;34.00;14.80;;;7.00;99.90;;;;;;5063546;28;20407;-58
2022/03/27 08:55:07;;;;;;;33.22;14.57;;;7.10;99.90;;;;;;5059841;28;20399;-56
2022/03/27 08:57:51;;;;;;;32.78;14.25;;;7.20;99.90;;;;;;5061214;28;20383;-58
2022/03/27 09:00:23;;;;;;;37.65;14.65;;;7.30;99.90;;;;;;5047434;28;20519;-55
2022/03/27 09:02:49;;;;;;;29.67;13.35;;;7.40;99.90;;;;;;5067981;28;20503;-54
2022/03/27 09:05:16;;;;;;;36.38;14.32;;;7.60;99.90;;;;;;5048286;28;20441;-55
2022/03/27 09:07:41;;;;;;;34.05;14.52;;;7.60;99.90;;;;;;5050304;28;20415;-55
2022/03/27 09:10:10;;;;;;;31.98;13.07;;;7.50;99.90;;;;;;5049884;28;20490;-58
2022/03/27 09:12:35;;;;;;;35.22;14.35;;;7.50;99.90;;;;;;5053128;28;20383;-55
2022/03/27 09:15:05;;;;;;;31.20;13.10;;;7.60;99.90;;;;;;5071771;28;20402;-58
2022/03/27 09:17:31;;;;;;;37.15;14.35;;;7.70;99.90;;;;;;5053927;28;20430;-57
2022/03/27 09:19:57;;;;;;;32.85;13.45;;;7.80;99.90;;;;;;5053017;28;20399;-57
2022/03/27 09:22:29;;;;;;;29.23;11.93;;;7.90;99.90;;;;;;5052091;28;20802;-59
2022/03/27 09:24:59;;;;;;;30.02;13.00;;;7.90;99.90;;;;;;5049657;28;20756;-59
2022/03/27 09:27:36;;;;;;;27.70;11.75;;;8.10;99.90;;;;;;5050941;28;20380;-58
2022/03/27 09:30:08;;;;;;;28.92;11.75;;;8.10;99.90;;;;;;5050127;28;20387;-59
2022/03/27 09:32:39;;;;;;;28.77;11.50;;;8.10;99.90;;;;;;5069831;28;20383;-58
2022/03/27 09:35:10;;;;;;;26.88;11.35;;;8.00;99.90;;;;;;5052308;28;20764;-59
2022/03/27 09:37:38;;;;;;;27.30;11.75;;;8.10;99.90;;;;;;5053301;28;20383;-58
2022/03/27 09:40:09;;;;;;;27.38;11.23;;;8.00;99.90;;;;;;5050553;28;20435;-58
2022/03/27 09:42:40;;;;;;;29.63;11.07;;;8.10;99.90;;;;;;5049937;28;20399;-59
2022/03/27 09:45:17;;;;;;;26.92;11.65;;;8.20;99.90;;;;;;5067422;28;20408;-58
2022/03/27 09:47:45;;;;;;;29.40;10.73;;;8.30;99.90;;;;;;5050856;28;20446;-59
2022/03/27 09:50:33;;;;;;;31.75;11.57;;;8.40;99.90;;;;;;5049606;28;20468;-58
2022/03/27 09:53:30;;;;;;;25.65;10.60;;;8.50;99.90;;;;;;5049309;28;20483;-59
2022/03/27 09:55:56;;;;;;;28.20;11.15;;;8.50;99.90;;;;;;5049339;28;21012;-57
2022/03/27 09:58:38;;;;;;;27.70;11.48;;;8.50;99.90;;;;;;5046615;28;20420;-58
2022/03/27 10:01:22;;;;;;;24.35;10.95;;;8.30;99.90;;;;;;5047017;28;20408;-58
2022/03/27 10:04:17;;;;;;;26.17;10.73;;;8.50;99.90;;;;;;5050455;28;20517;-55
2022/03/27 10:06:43;;;;;;;28.73;12.40;;;8.50;99.90;;;;;;5039264;28;20927;-57
2022/03/27 10:09:11;;;;;;;25.42;12.25;;;8.40;99.90;;;;;;5068642;28;20403;-58
2022/03/27 10:11:39;;;;;;;26.42;11.88;;;8.60;99.90;;;;;;5051301;28;20391;-59
2022/03/27 10:14:06;;;;;;;29.83;13.27;;;8.70;99.90;;;;;;5055095;28;20719;-56
2022/03/27 10:16:37;;;;;;;31.95;14.70;;;8.70;99.90;;;;;;5069609;28;20399;-58
2022/03/27 10:19:11;;;;;;;28.05;14.77;;;8.80;99.90;;;;;;5052356;28;20394;-59
2022/03/27 10:21:38;;;;;;;27.58;14.82;;;8.80;99.90;;;;;;5065308;28;20383;-59
2022/03/27 10:24:14;;;;;;;26.23;13.38;;;8.80;99.90;;;;;;5070385;28;20380;-59
2022/03/27 10:26:46;;;;;;;24.77;12.03;;;8.90;99.90;;;;;;5066216;28;20386;-59
2022/03/27 10:29:14;;;;;;;25.48;10.82;;;9.00;99.90;;;;;;5085740;28;20389;-58
2022/03/27 10:31:40;;;;;;;19.50;9.75;;;9.10;99.90;;;;;;5068271;28;20445;-62
2022/03/27 10:34:08;;;;;;;24.80;10.03;;;9.00;99.90;;;;;;5068925;28;20390;-59
2022/03/27 10:36:48;;;;;;;23.70;10.23;;;8.90;99.90;;;;;;5070872;28;20382;-55
2022/03/27 10:39:22;;;;;;;22.97;10.40;;;9.00;99.90;;;;;;5073162;28;20994;-59
2022/03/27 10:42:22;;;;;;;23.93;10.87;;;9.10;99.90;;;;;;5055680;28;20471;-59
2022/03/27 10:44:54;;;;;;;29.20;11.60;;;9.20;99.90;;;;;;5052191;28;20414;-59
2022/03/27 10:47:22;;;;;;;27.55;11.32;;;9.40;99.90;;;;;;5051470;28;20476;-58
2022/03/27 10:50:06;;;;;;;22.88;10.73;;;9.50;99.90;;;;;;5052116;28;20384;-58
2022/03/27 10:52:34;;;;;;;28.17;12.43;;;9.70;99.90;;;;;;5050220;28;20394;-59
2022/03/27 10:55:02;;;;;;;21.20;10.52;;;10.00;99.90;;;;;;5049936;28;20388;-58
2022/03/27 10:57:34;;;;;;;23.23;10.95;;;10.30;99.90;;;;;;5048348;28;20592;-59
2022/03/27 11:00:00;;;;;;;25.63;10.63;;;10.70;99.90;;;;;;5043869;28;20403;-59
2022/03/27 11:02:53;;;;;;;23.15;10.25;;;11.00;99.90;;;;;;5042736;28;20394;-59
2022/03/27 11:05:36;;;;;;;23.35;10.80;;;11.10;99.90;;;;;;5047639;28;20384;-59
2022/03/27 11:08:25;;;;;;;19.40;10.40;;;11.30;99.90;;;;;;5067176;28;20459;-59
2022/03/27 11:10:59;;;;;;;23.08;10.85;;;11.60;99.90;;;;;;5044872;28;20396;-59
2022/03/27 11:13:31;;;;;;;21.08;12.02;;;11.60;99.90;;;;;;5093075;28;20377;-58
2022/03/27 11:16:14;;;;;;;24.48;11.50;;;11.60;99.90;;;;;;5113549;28;20392;-59
2022/03/27 11:18:45;;;;;;;19.98;10.85;;;11.70;99.90;;;;;;5095558;28;20820;-59
2022/03/27 11:21:35;;;;;;;21.77;11.45;;;12.00;99.90;;;;;;5079985;28;20448;-59
2022/03/27 11:24:07;;;;;;;20.08;10.45;;;12.10;99.90;;;;;;5094885;28;20516;-56
2022/03/27 11:26:35;;;;;;;20.90;11.53;;;12.30;99.90;;;;;;5114143;28;20411;-58
2022/03/27 11:29:22;;;;;;;17.88;10.45;;;12.40;99.90;;;;;;5096032;28;20381;-59
2022/03/27 11:32:08;;;;;;;21.65;11.23;;;12.30;99.90;;;;;;5096223;28;20393;-59
2022/03/27 11:34:35;;;;;;;20.23;11.85;;;12.40;99.90;;;;;;5062138;28;20629;-57
2022/03/27 11:37:25;;;;;;;17.30;10.30;;;12.60;99.90;;;;;;5078016;28;20388;-58
2022/03/27 11:39:53;;;;;;;20.73;11.40;;;12.90;99.90;;;;;;5092975;28;20483;-59
2022/03/27 11:42:33;;;;;;;23.90;12.30;;;13.00;99.90;;;;;;5093533;28;21016;-57
2022/03/27 11:45:20;;;;;;;22.67;11.73;;;12.90;99.90;;;;;;5094013;28;20568;-56
2022/03/27 11:47:54;;;;;;;18.45;11.23;;;12.80;99.90;;;;;;5077698;28;20403;-59
2022/03/27 11:50:32;;;;;;;18.25;11.00;;;13.20;99.90;;;;;;5077261;28;20396;-59
2022/03/27 11:52:58;;;;;;;22.27;12.13;;;13.40;99.90;;;;;;5112402;28;20699;-60
2022/03/27 11:55:29;;;;;;;19.65;11.57;;;13.60;99.90;;;;;;5093515;28;20392;-59
2022/03/27 11:57:57;;;;;;;23.08;12.52;;;13.70;99.90;;;;;;5092845;28;20408;-57
2022/03/27 12:00:46;;;;;;;20.42;11.70;;;13.70;99.90;;;;;;5092707;28;20842;-55
2022/03/27 12:03:20;;;;;;;21.48;13.25;;;13.90;99.90;;;;;;5086964;28;20419;-59
2022/03/27 12:05:47;;;;;;;22.00;13.18;;;14.10;99.90;;;;;;5104321;28;20387;-57
2022/03/27 12:08:17;;;;;;;23.23;12.80;;;14.20;99.90;;;;;;5087572;28;20526;-59
2022/03/27 12:10:49;;;;;;;21.20;12.85;;;14.20;99.90;;;;;;5104564;28;20994;-59
2022/03/27 12:13:15;;;;;;;22.90;12.73;;;14.40;99.90;;;;;;5105999;28;20392;-58
2022/03/27 12:15:52;;;;;;;21.25;13.00;;;14.50;99.90;;;;;;5085527;28;20396;-59
2022/03/27 12:18:30;;;;;;;20.83;13.10;;;14.10;99.90;;;;;;5085848;28;20417;-59
2022/03/27 12:20:56;;;;;;;23.67;12.68;;;14.20;99.90;;;;;;5103231;28;20502;-58
2022/03/27 12:23:28;;;;;;;22.50;12.80;;;14.20;99.90;;;;;;5103003;28;20402;-58
2022/03/27 12:26:00;;;;;;;23.20;12.80;;;14.10;99.90;;;;;;5085827;28;20376;-56
2022/03/27 12:31:25;;;;;;;26.10;13.30;;;14.70;99.90;;;;;;5102326;28;20387;-57
2022/03/27 12:33:51;;;;;;;23.53;13.93;;;14.80;99.90;;;;;;5104026;28;20383;-58
2022/03/27 12:36:17;;;;;;;21.42;11.35;;;15.00;99.90;;;;;;5107855;28;20695;-54
2022/03/27 12:38:43;;;;;;;16.33;8.00;;;15.10;99.90;;;;;;5089225;28;20392;-59
2022/03/27 12:41:10;;;;;;;11.13;7.18;;;15.50;99.90;;;;;;5105061;28;20436;-57
2022/03/27 12:43:55;;;;;;;15.32;8.52;;;15.60;99.90;;;;;;5090068;28;20858;-59
2022/03/27 12:46:23;;;;;;;13.88;8.13;;;15.70;99.90;;;;;;5106013;28;20479;-57
2022/03/27 12:48:59;;;;;;;13.95;7.95;;;15.70;99.90;;;;;;5091139;28;20372;-59
2022/03/27 12:51:25;;;;;;;10.40;7.38;;;16.00;99.90;;;;;;5090971;28;20441;-59
2022/03/27 12:54:08;;;;;;;13.40;7.82;;;16.20;99.90;;;;;;5090458;28;20388;-59
2022/03/27 12:56:53;;;;;;;13.30;6.93;;;16.30;99.90;;;;;;5090491;28;20471;-59
2022/03/27 12:59:23;;;;;;;10.85;7.47;;;16.20;99.90;;;;;;5089155;28;20902;-57